Terminal Aerodrome Forecast
Issued by NWS Sioux Falls, SD

Home | Current Version | Previous Version | Graphics & Text | Print | Product List | Glossary Off
Versions: 1 2 3 4 5 6 7 8 9 10 11 12 13 14 15 16 17 18 19 20

000
FTUS43 KFSD 250302 AAC
TAFHON
TAF AMD
KHON 250302Z 2503/2524 36018G25KT 6SM -RASN OVC005
      TEMPO 2503/2504 3SM -RASN
     FM250400 36018G25KT 2SM -SN SCT005 OVC010
      TEMPO 2504/2507 3/4SM -SN OVC005
     FM250700 36018G25KT 4SM -SN OVC010
     FM251000 35014G20KT P6SM OVC015
     FM251900 32008KT P6SM BKN030
     FM252200 VRB03KT P6SM SCT050 BKN200=

USA.gov is the U.S. government's official web portal to all federal, state and local government web resources and services.